TAF Text Data
IDs:
Format:
Raw Decoded Include METAR

Data at: 2331 UTC 18 Oct 2019

KMKT 182320Z 1900/1924 17013G22KT P6SM BKN070 WS020/19045KT
  FM190500 18012G21KT P6SM SCT090 BKN200
  FM191000 25007KT P6SM BKN150
  FM191500 27010G16KT P6SM SKC